createdAt,value
2018-10-18T00:02:26.860Z,19.23
2018-10-18T00:04:55.231Z,19.07
2018-10-18T00:07:23.371Z,19.03
2018-10-18T00:09:51.499Z,17.77
2018-10-18T00:12:19.754Z,18.27
2018-10-18T00:14:47.876Z,18.50
2018-10-18T00:17:21.532Z,16.50
2018-10-18T00:19:49.659Z,15.47
2018-10-18T00:22:17.799Z,16.20
2018-10-18T00:24:45.939Z,15.83
2018-10-18T00:27:14.325Z,14.97
2018-10-18T00:29:42.444Z,15.30
2018-10-18T00:32:10.843Z,14.60
2018-10-18T00:34:39.151Z,13.83
2018-10-18T00:37:07.511Z,13.67
2018-10-18T00:39:35.656Z,14.40
2018-10-18T00:42:05.101Z,14.20
2018-10-18T00:44:34.493Z,14.70
2018-10-18T00:47:02.633Z,15.10
2018-10-18T00:49:30.958Z,13.13
2018-10-18T00:51:59.083Z,14.33
2018-10-18T00:54:27.231Z,14.63
2018-10-18T00:56:55.366Z,13.57
2018-10-18T00:59:23.528Z,14.60
2018-10-18T01:01:51.930Z,14.87
2018-10-18T01:04:20.095Z,14.13
2018-10-18T01:06:48.356Z,14.33
2018-10-18T01:09:16.488Z,13.83
2018-10-18T01:11:44.819Z,14.40
2018-10-18T01:14:13.349Z,13.87
2018-10-18T01:16:41.542Z,14.90
2018-10-18T01:19:09.668Z,14.60
2018-10-18T01:21:38.991Z,14.40
2018-10-18T01:24:07.579Z,12.07
2018-10-18T01:26:35.704Z,15.13
2018-10-18T01:29:03.831Z,13.33
2018-10-18T01:31:31.975Z,14.23
2018-10-18T01:34:00.219Z,14.23
2018-10-18T01:36:28.583Z,13.77
2018-10-18T01:38:56.720Z,12.60
2018-10-18T01:41:25.032Z,14.00
2018-10-18T01:43:53.186Z,13.70
2018-10-18T01:46:21.311Z,12.18
2018-10-18T01:48:53.392Z,13.13
2018-10-18T01:51:21.528Z,14.18
2018-10-18T01:53:49.643Z,15.17
2018-10-18T01:56:17.772Z,14.90
2018-10-18T01:58:45.903Z,14.47
2018-10-18T02:01:14.237Z,15.83
2018-10-18T02:03:42.598Z,15.43
2018-10-18T02:06:10.845Z,15.07
2018-10-18T02:08:38.918Z,15.53
2018-10-18T02:11:07.292Z,15.43
2018-10-18T02:13:35.564Z,17.37
2018-10-18T02:16:03.876Z,17.03
2018-10-18T02:18:32.103Z,15.80
2018-10-18T02:21:00.324Z,15.07
2018-10-18T02:23:28.448Z,16.57
2018-10-18T02:25:56.816Z,15.50
2018-10-18T02:28:25.576Z,14.47
2018-10-18T02:30:53.696Z,13.23
2018-10-18T02:33:21.892Z,13.35
2018-10-18T02:35:50.154Z,14.35
2018-10-18T02:38:18.288Z,14.00
2018-10-18T02:40:46.416Z,13.80
2018-10-18T02:43:14.816Z,12.80
2018-10-18T02:45:42.952Z,14.53
2018-10-18T02:48:11.093Z,13.87
2018-10-18T02:50:39.208Z,14.23
2018-10-18T02:53:07.339Z,14.63
2018-10-18T02:55:35.480Z,13.90
2018-10-18T02:58:03.718Z,14.60
2018-10-18T03:00:31.897Z,13.63
2018-10-18T03:03:00.028Z,13.80
2018-10-18T03:05:28.653Z,13.40
2018-10-18T03:07:57.016Z,12.43
2018-10-18T03:10:25.428Z,12.57
2018-10-18T03:13:12.837Z,13.10
2018-10-18T03:15:40.977Z,13.13
2018-10-18T03:18:09.378Z,12.63
2018-10-18T03:20:37.656Z,12.10
2018-10-18T03:23:05.783Z,12.95
2018-10-18T03:25:34.724Z,13.23
2018-10-18T03:28:03.437Z,14.23
2018-10-18T03:30:31.517Z,13.57
2018-10-18T03:32:59.651Z,14.03
2018-10-18T03:35:27.779Z,13.20
2018-10-18T03:37:55.918Z,13.60
2018-10-18T03:40:24.378Z,13.40
2018-10-18T03:42:52.502Z,13.77
2018-10-18T03:45:20.629Z,12.57
2018-10-18T03:47:48.903Z,12.95
2018-10-18T03:50:17.795Z,11.93
2018-10-18T03:52:45.980Z,12.57
2018-10-18T03:55:14.115Z,10.53
2018-10-18T03:57:42.239Z,12.90
2018-10-18T04:00:10.467Z,13.07
2018-10-18T04:02:38.532Z,12.18
2018-10-18T04:05:07.225Z,11.47
2018-10-18T04:07:35.359Z,10.90
2018-10-18T04:10:03.523Z,11.60
2018-10-18T04:12:32.545Z,10.03
2018-10-18T04:15:01.305Z,9.25
2018-10-18T04:17:29.480Z,11.07
2018-10-18T04:19:57.613Z,13.90
2018-10-18T04:22:25.912Z,13.43
2018-10-18T04:24:54.268Z,14.70
2018-10-18T04:27:22.644Z,15.43
2018-10-18T04:29:51.023Z,15.57
2018-10-18T04:32:19.403Z,13.03
2018-10-18T04:34:47.532Z,16.57
2018-10-18T04:37:15.953Z,15.80
2018-10-18T04:39:43.983Z,15.13
2018-10-18T04:42:12.164Z,14.47
2018-10-18T04:44:40.251Z,14.97
2018-10-18T04:47:08.429Z,16.77
2018-10-18T04:49:37.420Z,17.20
2018-10-18T04:52:05.770Z,15.00
2018-10-18T04:54:33.927Z,15.40
2018-10-18T04:57:02.448Z,14.93
2018-10-18T04:59:30.585Z,14.40
2018-10-18T05:01:58.708Z,14.87
2018-10-18T05:04:26.862Z,12.90
2018-10-18T05:06:55.170Z,13.67
2018-10-18T05:09:23.551Z,15.40
2018-10-18T05:11:51.933Z,14.37
2018-10-18T05:14:20.068Z,13.20
2018-10-18T05:16:48.270Z,13.67
2018-10-18T05:19:16.496Z,12.35
2018-10-18T05:21:44.824Z,13.60
2018-10-18T05:24:13.532Z,13.25
2018-10-18T05:26:41.654Z,13.53
2018-10-18T05:29:09.780Z,12.17
2018-10-18T05:31:40.867Z,14.87
2018-10-18T05:34:08.952Z,12.55
2018-10-18T05:36:52.487Z,15.10
2018-10-18T05:39:20.926Z,13.67
2018-10-18T05:41:49.226Z,16.13
2018-10-18T05:44:17.341Z,16.30
2018-10-18T05:46:45.557Z,14.23
2018-10-18T05:49:13.718Z,16.43
2018-10-18T05:51:41.812Z,17.60
2018-10-18T05:54:10.985Z,14.53
2018-10-18T05:56:39.605Z,13.70
2018-10-18T05:59:07.747Z,14.60
2018-10-18T06:01:36.079Z,16.37
2018-10-18T06:04:05.128Z,15.45
2018-10-18T06:06:33.268Z,17.53
2018-10-18T06:09:01.380Z,18.07
2018-10-18T06:11:31.088Z,18.80
2018-10-18T06:13:59.351Z,16.90
2018-10-18T06:16:27.587Z,17.63
2018-10-18T06:18:55.838Z,18.40
2018-10-18T06:21:24.496Z,15.37
2018-10-18T06:23:52.616Z,14.97
2018-10-18T06:26:21.279Z,14.25
2018-10-18T06:28:50.144Z,14.37
2018-10-18T06:31:18.792Z,14.60
2018-10-18T06:33:47.112Z,17.75
2018-10-18T06:36:15.236Z,17.40
2018-10-18T06:38:43.591Z,18.57
2018-10-18T06:41:11.847Z,19.35
2018-10-18T06:43:41.045Z,23.33
2018-10-18T06:46:11.184Z,24.60
2018-10-18T06:48:39.728Z,21.93
2018-10-18T06:51:08.203Z,20.27
2018-10-18T06:53:36.360Z,24.70
2018-10-18T06:56:04.863Z,20.50
2018-10-18T06:58:32.996Z,21.33
2018-10-18T07:01:01.412Z,25.03
2018-10-18T07:03:29.771Z,20.90
2018-10-18T07:05:57.948Z,24.33
2018-10-18T07:08:27.692Z,19.73
2018-10-18T07:10:56.011Z,23.67
2018-10-18T07:13:24.260Z,21.63
2018-10-18T07:15:52.412Z,21.73
2018-10-18T07:18:20.996Z,24.20
2018-10-18T07:20:49.377Z,22.98
2018-10-18T07:23:17.755Z,25.27
2018-10-18T07:25:46.184Z,22.03
2018-10-18T07:28:14.532Z,24.40
2018-10-18T07:30:42.652Z,18.83
2018-10-18T07:33:10.968Z,22.27
2018-10-18T07:35:39.350Z,20.97
2018-10-18T07:38:07.487Z,18.37
2018-10-18T07:40:35.796Z,20.70
2018-10-18T07:43:03.911Z,21.10
2018-10-18T07:45:32.255Z,17.17
2018-10-18T07:48:00.930Z,17.93
2018-10-18T07:50:29.049Z,21.37
2018-10-18T07:52:57.195Z,19.10
2018-10-18T07:55:25.316Z,18.70
2018-10-18T07:57:53.520Z,19.17
2018-10-18T08:00:21.778Z,20.83
2018-10-18T08:02:49.968Z,18.20
2018-10-18T08:05:18.097Z,17.97
2018-10-18T08:07:46.422Z,16.90
2018-10-18T08:10:15.798Z,20.53
2018-10-18T08:12:43.931Z,17.92
2018-10-18T08:15:13.703Z,18.82
2018-10-18T08:17:42.656Z,20.83
2018-10-18T08:20:11.761Z,19.87
2018-10-18T08:22:40.561Z,20.47
2018-10-18T08:25:09.703Z,17.50
2018-10-18T08:27:38.228Z,19.10
2018-10-18T08:30:09.175Z,19.13
2018-10-18T08:32:37.323Z,16.83
2018-10-18T08:35:06.950Z,16.40
2018-10-18T08:37:35.096Z,16.30
2018-10-18T08:40:03.224Z,14.77
2018-10-18T08:42:31.395Z,13.97
2018-10-18T08:44:59.540Z,15.10
2018-10-18T08:47:27.668Z,14.37
2018-10-18T08:49:55.937Z,13.73
2018-10-18T08:52:24.271Z,14.10
2018-10-18T08:54:52.695Z,12.10
2018-10-18T08:57:20.823Z,12.65
2018-10-18T08:59:49.108Z,11.23
2018-10-18T09:02:17.224Z,10.63
2018-10-18T09:04:45.748Z,12.30
2018-10-18T09:07:20.485Z,10.80
2018-10-18T09:09:48.776Z,11.40
2018-10-18T09:12:16.932Z,10.33
2018-10-18T09:14:45.060Z,9.35
2018-10-18T09:17:13.207Z,9.68
2018-10-18T09:19:41.352Z,9.70
2018-10-18T09:22:09.744Z,9.80
2018-10-18T09:24:38.140Z,9.90
2018-10-18T09:27:06.277Z,8.20
2018-10-18T09:29:34.564Z,9.50
2018-10-18T09:32:02.949Z,7.73
2018-10-18T09:34:31.078Z,8.60
2018-10-18T09:36:59.420Z,9.17
2018-10-18T09:39:27.514Z,9.07
2018-10-18T09:41:55.645Z,7.70
2018-10-18T09:44:24.469Z,9.67
2018-10-18T09:46:52.523Z,7.70
2018-10-18T09:49:20.645Z,7.87
2018-10-18T09:51:48.782Z,7.97
2018-10-18T09:54:16.958Z,8.18
2018-10-18T09:56:45.344Z,8.43
2018-10-18T09:59:13.448Z,8.73
2018-10-18T10:01:47.651Z,8.50
2018-10-18T10:04:15.886Z,8.03
2018-10-18T10:06:44.923Z,7.70
2018-10-18T10:09:13.531Z,8.60
2018-10-18T10:11:41.669Z,8.93
2018-10-18T10:14:09.796Z,7.90
2018-10-18T10:16:37.918Z,7.47
2018-10-18T10:19:06.107Z,7.13
2018-10-18T10:21:34.206Z,8.57
2018-10-18T10:24:02.324Z,6.33
2018-10-18T10:26:30.440Z,5.63
2018-10-18T10:28:58.564Z,7.27
2018-10-18T10:31:26.680Z,6.17
2018-10-18T10:33:54.800Z,7.63
2018-10-18T10:36:22.956Z,7.00
2018-10-18T10:38:51.065Z,7.77
2018-10-18T10:41:19.184Z,7.43
2018-10-18T10:43:47.308Z,7.40
2018-10-18T10:46:15.512Z,7.78
2018-10-18T10:48:43.552Z,7.03
2018-10-18T10:51:12.409Z,6.97
2018-10-18T10:53:40.432Z,6.70
2018-10-18T10:56:08.630Z,6.63
2018-10-18T10:58:36.689Z,6.73
2018-10-18T11:01:14.172Z,6.73
2018-10-18T11:03:43.056Z,6.20
2018-10-18T11:06:11.491Z,7.20
2018-10-18T11:08:39.588Z,6.57
2018-10-18T11:11:08.092Z,6.87
2018-10-18T11:13:36.220Z,7.13
2018-10-18T11:16:05.612Z,7.00
2018-10-18T11:18:36.020Z,6.80
2018-10-18T11:21:05.784Z,6.50
2018-10-18T11:23:34.440Z,5.97
2018-10-18T11:26:02.985Z,6.23
2018-10-18T11:28:31.111Z,6.10
2018-10-18T11:30:59.241Z,6.40
2018-10-18T11:33:27.950Z,5.80
2018-10-18T11:35:56.128Z,6.00
2018-10-18T11:38:24.236Z,6.00
2018-10-18T11:40:52.352Z,5.13
2018-10-18T11:43:20.532Z,5.93
2018-10-18T11:45:48.651Z,5.60
2018-10-18T11:48:17.060Z,5.63
2018-10-18T11:50:45.381Z,5.43
2018-10-18T11:53:13.507Z,5.13
2018-10-18T11:55:41.648Z,5.17
2018-10-18T11:58:10.641Z,4.95
2018-10-18T12:00:38.851Z,4.30
2018-10-18T12:03:06.996Z,4.00
2018-10-18T12:05:35.192Z,5.03
2018-10-18T12:08:03.621Z,4.53
2018-10-18T12:10:31.687Z,4.50
2018-10-18T12:13:07.191Z,4.33
2018-10-18T12:15:35.320Z,4.47
2018-10-18T12:18:04.663Z,4.62
2018-10-18T12:20:32.772Z,4.93
2018-10-18T12:23:00.940Z,4.37
2018-10-18T12:25:29.016Z,4.60
2018-10-18T12:27:57.156Z,3.87
2018-10-18T12:30:25.268Z,3.70
2018-10-18T12:32:53.391Z,4.73
2018-10-18T12:35:21.550Z,4.85
2018-10-18T12:37:49.688Z,4.50
2018-10-18T12:40:17.853Z,4.53
2018-10-18T12:42:47.259Z,4.13
2018-10-18T12:45:15.385Z,3.87
2018-10-18T12:47:43.536Z,3.70
2018-10-18T12:50:11.732Z,3.87
2018-10-18T12:52:40.116Z,4.33
2018-10-18T12:55:08.264Z,4.27
2018-10-18T12:57:36.400Z,4.00
2018-10-18T13:00:05.325Z,3.77
2018-10-18T13:02:33.469Z,3.80
2018-10-18T13:05:01.530Z,3.60
2018-10-18T13:07:29.667Z,3.10
2018-10-18T13:09:57.797Z,3.60
2018-10-18T13:12:26.398Z,2.90
2018-10-18T13:14:54.320Z,3.50
2018-10-18T13:17:22.432Z,3.23
2018-10-18T13:19:50.569Z,3.50
2018-10-18T13:22:18.693Z,3.42
2018-10-18T13:24:47.067Z,3.10
2018-10-18T13:27:15.197Z,3.22
2018-10-18T13:29:43.320Z,3.23
2018-10-18T13:32:11.559Z,2.97
2018-10-18T13:34:39.582Z,3.33
2018-10-18T13:37:07.709Z,3.27
2018-10-18T13:39:36.083Z,3.40
2018-10-18T13:42:05.443Z,3.53
2018-10-18T13:44:33.509Z,3.20
2018-10-18T13:47:01.644Z,3.30
2018-10-18T13:49:29.805Z,3.30
2018-10-18T13:51:57.937Z,3.10
2018-10-18T13:54:26.698Z,3.40
2018-10-18T13:56:54.828Z,3.12
2018-10-18T13:59:34.335Z,3.47
2018-10-18T14:02:02.515Z,3.13
2018-10-18T14:04:30.617Z,3.65
2018-10-18T14:06:58.764Z,3.57
2018-10-18T14:09:27.185Z,3.07
2018-10-18T14:11:56.167Z,2.80
2018-10-18T14:14:24.294Z,3.50
2018-10-18T14:16:52.431Z,3.13
2018-10-18T14:19:20.560Z,2.85
2018-10-18T14:21:48.726Z,3.10
2018-10-18T14:24:16.851Z,2.87
2018-10-18T14:26:45.001Z,3.10
2018-10-18T14:29:13.247Z,2.87
2018-10-18T14:31:41.253Z,2.87
2018-10-18T14:34:09.598Z,3.13
2018-10-18T14:36:37.751Z,3.10
2018-10-18T14:39:07.248Z,3.07
2018-10-18T14:41:35.365Z,3.20
2018-10-18T14:44:04.609Z,2.58
2018-10-18T14:46:32.654Z,2.50
2018-10-18T14:49:00.889Z,2.77
2018-10-18T14:51:29.020Z,2.80
2018-10-18T14:53:57.157Z,2.40
2018-10-18T14:56:25.528Z,2.80
2018-10-18T14:58:53.704Z,2.90
2018-10-18T15:01:21.816Z,2.70
2018-10-18T15:03:49.981Z,2.43
2018-10-18T15:06:18.097Z,2.67
2018-10-18T15:08:46.237Z,3.30
2018-10-18T15:11:14.523Z,2.85
2018-10-18T15:13:42.508Z,3.07
2018-10-18T15:16:10.625Z,2.80
2018-10-18T15:18:38.756Z,3.00
2018-10-18T15:21:06.874Z,2.80
2018-10-18T15:23:34.998Z,3.10
2018-10-18T15:26:03.157Z,3.50
2018-10-18T15:28:31.267Z,3.07
2018-10-18T15:30:59.406Z,3.13
2018-10-18T15:36:26.932Z,3.43
2018-10-18T15:38:55.296Z,2.80
2018-10-18T15:41:23.209Z,3.30
2018-10-18T15:43:51.334Z,4.60
2018-10-18T15:46:19.797Z,3.40
2018-10-18T15:48:48.739Z,3.63
2018-10-18T15:51:17.023Z,4.75
2018-10-18T15:53:45.115Z,3.57
2018-10-18T15:56:13.132Z,3.67
2018-10-18T15:58:41.256Z,3.73
2018-10-18T16:01:09.399Z,4.20
2018-10-18T16:03:37.533Z,3.43
2018-10-18T16:06:05.768Z,3.47
2018-10-18T16:08:34.075Z,2.90
2018-10-18T16:11:02.196Z,3.30
2018-10-18T16:13:30.272Z,3.30
2018-10-18T16:15:58.440Z,3.03
2018-10-18T16:18:26.567Z,3.67
2018-10-18T16:20:54.704Z,3.10
2018-10-18T16:23:22.829Z,3.00
2018-10-18T16:25:51.048Z,2.77
2018-10-18T16:28:19.160Z,3.55
2018-10-18T16:30:47.279Z,3.30
2018-10-18T16:33:15.412Z,3.00
2018-10-18T16:35:43.576Z,2.77
2018-10-18T16:38:11.777Z,3.40
2018-10-18T16:40:40.091Z,3.13
2018-10-18T16:43:08.343Z,2.90
2018-10-18T16:45:36.460Z,3.60
2018-10-18T16:48:04.787Z,3.23
2018-10-18T16:50:32.924Z,3.00
2018-10-18T16:53:01.162Z,2.90
2018-10-18T16:55:29.731Z,2.63
2018-10-18T16:57:58.130Z,2.40
2018-10-18T17:00:48.888Z,3.23
2018-10-18T17:03:17.025Z,3.40
2018-10-18T17:05:45.201Z,3.00
2018-10-18T17:08:13.380Z,2.87
2018-10-18T17:10:41.445Z,3.00
2018-10-18T17:13:09.585Z,3.25
2018-10-18T17:15:37.731Z,2.87
2018-10-18T17:18:06.015Z,3.50
2018-10-18T17:20:35.172Z,2.70
2018-10-18T17:23:03.413Z,2.57
2018-10-18T17:25:31.563Z,5.07
2018-10-18T17:27:59.689Z,5.87
2018-10-18T17:30:28.628Z,4.70
2018-10-18T17:32:56.820Z,3.73
2018-10-18T17:35:24.947Z,3.50
2018-10-18T17:37:53.319Z,3.40
2018-10-18T17:40:21.630Z,3.03
2018-10-18T17:42:50.360Z,3.57
2018-10-18T17:45:18.490Z,3.70
2018-10-18T17:47:46.637Z,3.30
2018-10-18T17:50:14.821Z,3.20
2018-10-18T17:52:43.142Z,3.40
2018-10-18T17:55:11.586Z,4.23
2018-10-18T17:57:39.744Z,3.65
2018-10-18T18:00:09.864Z,3.20
2018-10-18T18:02:38.144Z,3.33
2018-10-18T18:05:07.225Z,3.63
2018-10-18T18:07:35.515Z,3.60
2018-10-18T18:10:03.771Z,3.77
2018-10-18T18:12:31.885Z,3.97
2018-10-18T18:15:00.028Z,4.10
2018-10-18T18:17:28.159Z,4.20
2018-10-18T18:19:56.304Z,4.17
2018-10-18T18:22:24.437Z,3.77
2018-10-18T18:24:52.642Z,3.33
2018-10-18T18:27:21.175Z,3.30
2018-10-18T18:29:49.317Z,3.10
2018-10-18T18:32:17.449Z,4.78
2018-10-18T18:34:45.604Z,4.90
2018-10-18T18:37:13.740Z,5.87
2018-10-18T18:39:41.884Z,7.27
2018-10-18T18:42:10.014Z,8.53
2018-10-18T18:44:39.285Z,6.85
2018-10-18T18:47:07.408Z,4.77
2018-10-18T18:49:35.543Z,4.60
2018-10-18T18:52:04.560Z,4.17
2018-10-18T18:54:32.713Z,4.20
2018-10-18T18:57:00.958Z,3.70
2018-10-18T18:59:29.073Z,3.63
2018-10-18T19:01:57.220Z,3.87
2018-10-18T19:04:25.380Z,4.20
2018-10-18T19:06:53.521Z,3.80
2018-10-18T19:09:21.672Z,4.03
2018-10-18T19:11:49.816Z,3.60
2018-10-18T19:14:17.939Z,3.65
2018-10-18T19:16:46.072Z,4.07
2018-10-18T19:19:14.200Z,3.93
2018-10-18T19:21:42.365Z,4.30
2018-10-18T19:24:11.412Z,3.95
2018-10-18T19:26:39.536Z,4.30
2018-10-18T19:29:07.694Z,5.47
2018-10-18T19:31:35.833Z,5.33
2018-10-18T19:34:04.977Z,4.78
2018-10-18T19:36:33.112Z,4.87
2018-10-18T19:39:01.614Z,5.53
2018-10-18T19:41:29.745Z,5.63
2018-10-18T19:43:57.923Z,4.10
2018-10-18T19:46:26.054Z,4.60
2018-10-18T19:48:54.169Z,3.83
2018-10-18T19:51:22.297Z,3.80
2018-10-18T19:53:50.488Z,4.17
2018-10-18T19:56:18.626Z,5.20
2018-10-18T19:58:46.736Z,4.40
2018-10-18T20:01:14.904Z,4.03
2018-10-18T20:03:43.025Z,4.20
2018-10-18T20:06:11.156Z,3.53
2018-10-18T20:08:39.288Z,3.90
2018-10-18T20:11:07.478Z,3.50
2018-10-18T20:13:35.685Z,2.73
2018-10-18T20:16:05.115Z,3.40
2018-10-18T20:18:33.301Z,3.60
2018-10-18T20:21:01.463Z,3.40
2018-10-18T20:23:29.796Z,3.50
2018-10-18T20:25:58.094Z,2.97
2018-10-18T20:28:26.059Z,3.60
2018-10-18T20:30:54.204Z,3.67
2018-10-18T20:33:22.347Z,3.20
2018-10-18T20:35:50.485Z,2.80
2018-10-18T20:38:18.616Z,3.83
2018-10-18T20:40:46.742Z,3.73
2018-10-18T20:43:14.871Z,3.08
2018-10-18T20:45:43.028Z,3.03
2018-10-18T20:48:11.266Z,3.30
2018-10-18T20:50:40.215Z,3.70
2018-10-18T20:53:08.420Z,3.17
2018-10-18T20:55:36.577Z,3.37
2018-10-18T20:58:04.729Z,3.33
2018-10-18T21:00:32.856Z,3.00
2018-10-18T21:03:01.065Z,3.30
2018-10-18T21:05:29.148Z,3.10
2018-10-18T21:07:57.273Z,5.27
2018-10-18T21:10:25.656Z,7.93
2018-10-18T21:12:53.812Z,7.53
2018-10-18T21:15:21.939Z,9.23
2018-10-18T21:17:50.276Z,8.87
2018-10-18T21:20:18.418Z,8.03
2018-10-18T21:22:46.614Z,6.30
2018-10-18T21:25:14.740Z,5.30
2018-10-18T21:27:42.954Z,4.12
2018-10-18T21:30:11.105Z,3.27
2018-10-18T21:32:39.246Z,3.50
2018-10-18T21:35:07.751Z,3.50
2018-10-18T21:37:36.059Z,3.50
2018-10-18T21:40:04.825Z,3.43
2018-10-18T21:42:33.037Z,3.00
2018-10-18T21:45:02.268Z,3.13
2018-10-18T21:47:30.619Z,3.30
2018-10-18T21:49:58.736Z,3.43
2018-10-18T21:52:26.862Z,3.30
2018-10-18T21:54:55.046Z,3.40
2018-10-18T21:57:23.193Z,3.03
2018-10-18T21:59:51.503Z,3.73
2018-10-18T22:02:19.621Z,3.07
2018-10-18T22:04:47.786Z,3.00
2018-10-18T22:07:16.051Z,2.90
2018-10-18T22:09:44.136Z,3.20
2018-10-18T22:12:12.280Z,3.30
2018-10-18T22:14:40.405Z,3.03
2018-10-18T22:17:08.651Z,3.07
2018-10-18T22:19:36.732Z,3.15
2018-10-18T22:22:05.199Z,3.37
2018-10-18T22:24:33.343Z,3.63
2018-10-18T22:27:01.674Z,3.53
2018-10-18T22:29:29.887Z,3.13
2018-10-18T22:31:58.021Z,2.93
2018-10-18T22:34:26.186Z,3.33
2018-10-18T22:36:54.326Z,2.93
2018-10-18T22:39:22.757Z,2.90
2018-10-18T22:41:50.931Z,2.87
2018-10-18T22:44:19.220Z,2.80
2018-10-18T22:46:47.800Z,2.93
2018-10-18T22:49:15.933Z,3.00
2018-10-18T22:51:44.057Z,2.33
2018-10-18T22:54:12.249Z,2.87
2018-10-18T22:56:40.371Z,3.00
2018-10-18T22:59:08.555Z,3.20
2018-10-18T23:01:36.703Z,2.87
2018-10-18T23:04:05.253Z,3.17
2018-10-18T23:06:33.392Z,2.70
2018-10-18T23:09:01.585Z,2.97
2018-10-18T23:11:29.679Z,2.67
2018-10-18T23:13:58.424Z,2.20
2018-10-18T23:16:26.606Z,2.37
2018-10-18T23:18:54.755Z,3.03
2018-10-18T23:21:22.898Z,2.70
2018-10-18T23:23:51.121Z,2.70
2018-10-18T23:26:19.245Z,2.47
2018-10-18T23:28:47.372Z,2.80
2018-10-18T23:31:15.511Z,2.63
2018-10-18T23:33:43.707Z,3.08
2018-10-18T23:36:11.847Z,3.07
2018-10-18T23:38:39.989Z,2.40
2018-10-18T23:41:08.178Z,3.17
2018-10-18T23:43:36.953Z,2.77
2018-10-18T23:46:05.848Z,2.37
2018-10-18T23:48:33.996Z,2.47
2018-10-18T23:51:02.136Z,2.37
2018-10-18T23:53:30.276Z,2.60
2018-10-18T23:55:58.457Z,2.17
2018-10-18T23:58:26.674Z,2.20
